Time;durP1;ratioP1;P1;durP2;ratioP2;P2;SDS_P1;SDS_P2;PMS_P1;PMS_P2;Temp;Humidity;BMP_temperature;BMP_pressure;BME280_temperature;BME280_humidity;BME280_pressure;Samples;Min_cycle;Max_cycle;Signal;HPM_P1;HPM_P2
2021/03/17 00:00:43;;;;;;;12.80;7.60;;;;;;;;;;5000817;28;20026;-90
2021/03/17 00:03:09;;;;;;;11.05;6.95;;;;;;;;;;4983194;28;20077;-89
2021/03/17 00:05:36;;;;;;;10.30;6.90;;;;;;;;;;4983549;28;20488;-89
2021/03/17 00:08:03;;;;;;;13.02;7.53;;;;;;;;;;5000562;28;20026;-89
2021/03/17 00:10:33;;;;;;;13.52;7.97;;;;;;;;;;5000284;28;20080;-90
2021/03/17 00:13:00;;;;;;;12.27;7.68;;;;;;;;;;4999265;28;20400;-92
2021/03/17 00:15:27;;;;;;;12.10;7.97;;;;;;;;;;5000140;28;20046;-90
2021/03/17 00:17:53;;;;;;;13.57;7.90;;;;;;;;;;5000223;28;20106;-90
2021/03/17 00:20:20;;;;;;;10.05;6.47;;;;;;;;;;5000142;28;20026;-88
2021/03/17 00:22:46;;;;;;;10.25;6.90;;;;;;;;;;5000163;28;20046;-88
2021/03/17 00:25:12;;;;;;;11.07;7.53;;;;;;;;;;5000616;28;20041;-88
2021/03/17 00:27:39;;;;;;;9.55;6.80;;;;;;;;;;5000276;28;20054;-87
2021/03/17 00:30:06;;;;;;;10.48;6.57;;;;;;;;;;4983186;28;20030;-88
2021/03/17 00:32:32;;;;;;;12.02;7.40;;;;;;;;;;4999932;28;20436;-88
2021/03/17 00:34:58;;;;;;;11.15;6.65;;;;;;;;;;4999912;28;20388;-87
2021/03/17 00:37:24;;;;;;;11.23;7.47;;;;;;;;;;5000154;28;20019;-88
2021/03/17 00:39:50;;;;;;;9.57;6.85;;;;;;;;;;4999925;28;20022;-89
2021/03/17 00:42:17;;;;;;;10.43;7.20;;;;;;;;;;4999850;28;20057;-87
2021/03/17 00:44:43;;;;;;;10.80;7.03;;;;;;;;;;4999692;28;20065;-88
2021/03/17 00:47:09;;;;;;;13.60;8.02;;;;;;;;;;4999744;28;20026;-88
2021/03/17 00:49:35;;;;;;;11.10;7.00;;;;;;;;;;4999763;28;20053;-87
2021/03/17 00:52:01;;;;;;;10.65;6.53;;;;;;;;;;4999716;28;20038;-89
2021/03/17 00:54:27;;;;;;;15.38;6.93;;;;;;;;;;4999741;28;20026;-89
2021/03/17 00:56:53;;;;;;;9.95;7.20;;;;;;;;;;4999563;28;20019;-88
2021/03/17 00:59:19;;;;;;;11.02;7.40;;;;;;;;;;4999463;28;20023;-89
2021/03/17 01:01:45;;;;;;;8.00;6.28;;;;;;;;;;4999613;28;20026;-90
2021/03/17 01:04:11;;;;;;;10.13;7.30;;;;;;;;;;4999537;28;20158;-90
2021/03/17 01:06:38;;;;;;;10.90;6.95;;;;;;;;;;4999134;28;20030;-89
2021/03/17 01:09:04;;;;;;;9.05;6.88;;;;;;;;;;4999317;28;20053;-90
2021/03/17 01:11:30;;;;;;;9.25;6.20;;;;;;;;;;4999576;28;20317;-90
2021/03/17 01:13:56;;;;;;;8.75;6.00;;;;;;;;;;4999188;28;20062;-90
2021/03/17 01:16:22;;;;;;;9.98;6.57;;;;;;;;;;4999283;28;20027;-88
2021/03/17 01:18:49;;;;;;;9.85;6.22;;;;;;;;;;4998999;28;20413;-89
2021/03/17 01:21:15;;;;;;;7.90;5.53;;;;;;;;;;4999003;28;20197;-88
2021/03/17 01:23:41;;;;;;;9.18;6.13;;;;;;;;;;4999003;28;20038;-90
2021/03/17 01:26:07;;;;;;;9.55;5.90;;;;;;;;;;4999077;28;20031;-90
2021/03/17 01:28:33;;;;;;;9.88;6.00;;;;;;;;;;4999006;28;20065;-89
2021/03/17 01:30:59;;;;;;;10.75;6.20;;;;;;;;;;4998694;28;20038;-91
2021/03/17 01:33:26;;;;;;;8.93;6.40;;;;;;;;;;4998970;28;20057;-89
2021/03/17 01:35:53;;;;;;;8.98;6.03;;;;;;;;;;4998947;28;20038;-89
2021/03/17 01:38:19;;;;;;;9.43;6.20;;;;;;;;;;4999050;28;20022;-90
2021/03/17 01:40:46;;;;;;;11.07;6.57;;;;;;;;;;4981606;28;20022;-90
2021/03/17 01:43:12;;;;;;;11.57;6.85;;;;;;;;;;4998628;28;20033;-90
2021/03/17 01:45:39;;;;;;;10.45;6.97;;;;;;;;;;4998798;28;20034;-89
2021/03/17 01:48:06;;;;;;;9.10;6.30;;;;;;;;;;4998715;28;20145;-89
2021/03/17 01:50:38;;;;;;;11.48;6.97;;;;;;;;;;4998507;28;20425;-88
2021/03/17 01:53:06;;;;;;;10.68;6.63;;;;;;;;;;4998649;28;20113;-89
2021/03/17 01:55:32;;;;;;;12.40;7.00;;;;;;;;;;4981434;28;20026;-89
2021/03/17 01:58:00;;;;;;;8.55;6.13;;;;;;;;;;4981565;28;20051;-90
2021/03/17 02:00:26;;;;;;;10.40;6.60;;;;;;;;;;4981519;28;20057;-90
2021/03/17 02:02:54;;;;;;;9.30;6.15;;;;;;;;;;4998518;28;20027;-88
2021/03/17 02:05:24;;;;;;;7.97;6.00;;;;;;;;;;4998230;28;20062;-88
2021/03/17 02:07:51;;;;;;;8.75;5.78;;;;;;;;;;4998649;28;20026;-89
2021/03/17 02:10:18;;;;;;;8.23;5.60;;;;;;;;;;4981079;28;20038;-89
2021/03/17 02:13:03;;;;;;;9.18;5.68;;;;;;;;;;4981527;28;20105;-88
2021/03/17 02:15:42;;;;;;;8.65;6.00;;;;;;;;;;4998269;28;20019;-88
2021/03/17 02:18:22;;;;;;;9.48;6.00;;;;;;;;;;4998223;28;20097;-88
2021/03/17 02:21:07;;;;;;;8.27;6.00;;;;;;;;;;4998374;28;20026;-88
2021/03/17 02:23:35;;;;;;;10.13;6.43;;;;;;;;;;4998042;28;20148;-88
2021/03/17 02:26:30;;;;;;;10.38;6.40;;;;;;;;;;4998607;28;20356;-88
2021/03/17 02:29:11;;;;;;;9.55;6.13;;;;;;;;;;4941904;29;20039;-87
2021/03/17 02:31:52;;;;;;;11.27;6.93;;;;;;;;;;4957895;29;20062;-88
2021/03/17 02:34:24;;;;;;;10.20;6.35;;;;;;;;;;4957857;28;20058;-89
2021/03/17 02:36:53;;;;;;;11.82;6.38;;;;;;;;;;4945361;29;20074;-88
2021/03/17 02:39:30;;;;;;;9.90;6.70;;;;;;;;;;4961675;29;20035;-90
2021/03/17 02:42:02;;;;;;;10.40;6.93;;;;;;;;;;4961745;29;20421;-88
2021/03/17 02:44:28;;;;;;;11.35;6.68;;;;;;;;;;4946149;29;20505;-89
2021/03/17 02:46:56;;;;;;;10.77;6.60;;;;;;;;;;4961658;29;20035;-90
2021/03/17 02:49:26;;;;;;;9.85;6.50;;;;;;;;;;4961592;29;20027;-89
2021/03/17 02:51:55;;;;;;;11.40;6.65;;;;;;;;;;4961218;28;20035;-87
2021/03/17 02:54:22;;;;;;;8.95;5.90;;;;;;;;;;4961272;29;20128;-88
2021/03/17 02:56:52;;;;;;;8.77;6.45;;;;;;;;;;4961402;29;20558;-88
2021/03/17 02:59:19;;;;;;;9.43;6.88;;;;;;;;;;4961422;28;20062;-87
2021/03/17 03:01:49;;;;;;;10.85;7.05;;;;;;;;;;4961668;29;20043;-90
2021/03/17 03:04:16;;;;;;;10.60;6.50;;;;;;;;;;4964159;28;20387;-89
2021/03/17 03:06:44;;;;;;;11.50;6.47;;;;;;;;;;5001816;28;20113;-87
2021/03/17 03:09:11;;;;;;;9.15;6.60;;;;;;;;;;5001678;28;20064;-89
2021/03/17 03:11:38;;;;;;;10.18;6.22;;;;;;;;;;5001602;28;20105;-89
2021/03/17 03:14:05;;;;;;;10.73;6.40;;;;;;;;;;5001325;28;20110;-88
2021/03/17 03:16:32;;;;;;;10.05;6.07;;;;;;;;;;5001458;28;20046;-88
2021/03/17 03:18:59;;;;;;;9.32;6.85;;;;;;;;;;4984255;28;20018;-88
2021/03/17 03:21:26;;;;;;;11.68;5.95;;;;;;;;;;5001438;28;20101;-87
2021/03/17 03:23:53;;;;;;;9.68;6.38;;;;;;;;;;5001313;28;20031;-87
2021/03/17 03:26:19;;;;;;;9.50;6.57;;;;;;;;;;5001155;28;20034;-87
2021/03/17 03:28:47;;;;;;;11.00;7.63;;;;;;;;;;5001304;28;20081;-88
2021/03/17 03:31:14;;;;;;;11.00;6.93;;;;;;;;;;5001350;28;20031;-87
2021/03/17 03:33:40;;;;;;;12.90;7.43;;;;;;;;;;4983920;28;20046;-87
2021/03/17 03:36:06;;;;;;;10.52;7.00;;;;;;;;;;5001226;28;20022;-88
2021/03/17 03:38:32;;;;;;;11.57;7.53;;;;;;;;;;5001249;28;20026;-85
2021/03/17 03:40:59;;;;;;;10.65;7.28;;;;;;;;;;5000931;28;20033;-86
2021/03/17 03:43:25;;;;;;;12.30;6.95;;;;;;;;;;5001427;28;20069;-87
2021/03/17 03:45:51;;;;;;;10.55;7.05;;;;;;;;;;5000799;28;20102;-88
2021/03/17 03:48:17;;;;;;;10.57;7.00;;;;;;;;;;5001130;28;20029;-88
2021/03/17 03:50:45;;;;;;;13.15;7.40;;;;;;;;;;5001023;28;20109;-88
2021/03/17 03:53:17;;;;;;;10.70;6.70;;;;;;;;;;5000907;28;20081;-89
2021/03/17 03:55:49;;;;;;;14.07;7.85;;;;;;;;;;5001017;28;20049;-88
2021/03/17 03:58:19;;;;;;;13.18;7.82;;;;;;;;;;5000830;28;20026;-89
2021/03/17 04:00:45;;;;;;;10.63;7.25;;;;;;;;;;4983558;28;20409;-88
2021/03/17 04:03:13;;;;;;;15.32;9.90;;;;;;;;;;5000770;28;20060;-89
2021/03/17 04:05:44;;;;;;;10.95;6.90;;;;;;;;;;5000777;28;20417;-88
2021/03/17 04:08:19;;;;;;;10.00;6.93;;;;;;;;;;5000598;28;20030;-89
2021/03/17 04:10:52;;;;;;;11.60;7.18;;;;;;;;;;5000488;28;20085;-88
2021/03/17 04:13:19;;;;;;;9.95;6.72;;;;;;;;;;5000315;28;20165;-88
2021/03/17 04:15:46;;;;;;;12.93;6.88;;;;;;;;;;5000525;28;20018;-88
2021/03/17 04:18:13;;;;;;;9.95;6.38;;;;;;;;;;4983260;28;20019;-89
2021/03/17 04:20:46;;;;;;;11.07;7.40;;;;;;;;;;5000483;28;20404;-88
2021/03/17 04:23:13;;;;;;;9.68;6.57;;;;;;;;;;5000074;28;20104;-88
2021/03/17 04:25:42;;;;;;;9.93;6.95;;;;;;;;;;5000101;28;20037;-88
2021/03/17 04:28:11;;;;;;;9.40;6.60;;;;;;;;;;4982856;28;20403;-88
2021/03/17 04:30:37;;;;;;;9.23;6.70;;;;;;;;;;5000248;28;20375;-88
2021/03/17 04:33:03;;;;;;;15.00;6.80;;;;;;;;;;5000086;28;20151;-88
2021/03/17 04:35:29;;;;;;;12.38;7.22;;;;;;;;;;4982868;28;20412;-88
2021/03/17 04:37:56;;;;;;;11.60;6.80;;;;;;;;;;4999970;28;20416;-87
2021/03/17 04:40:23;;;;;;;12.48;7.00;;;;;;;;;;4999941;28;20022;-88
2021/03/17 04:42:50;;;;;;;12.82;7.45;;;;;;;;;;4982862;28;20028;-88
2021/03/17 04:45:17;;;;;;;13.70;7.35;;;;;;;;;;4999768;28;20049;-86
2021/03/17 04:47:44;;;;;;;12.38;7.57;;;;;;;;;;5000117;28;20076;-87
2021/03/17 04:50:15;;;;;;;13.82;7.57;;;;;;;;;;4999650;28;20030;-87
2021/03/17 04:52:42;;;;;;;10.93;7.32;;;;;;;;;;4982525;28;20100;-86
2021/03/17 04:55:09;;;;;;;9.57;7.15;;;;;;;;;;4999844;28;20033;-88
2021/03/17 04:57:38;;;;;;;11.25;6.68;;;;;;;;;;4998783;28;20027;-90
2021/03/17 05:00:07;;;;;;;11.50;7.65;;;;;;;;;;4999671;28;20096;-89
2021/03/17 05:02:36;;;;;;;12.63;8.40;;;;;;;;;;4966360;28;20034;-88
2021/03/17 05:05:02;;;;;;;16.15;9.27;;;;;;;;;;4999535;28;20026;-88
2021/03/17 05:07:29;;;;;;;12.68;7.75;;;;;;;;;;4982510;28;20033;-89
2021/03/17 05:09:55;;;;;;;11.15;7.68;;;;;;;;;;4999438;28;20022;-89
2021/03/17 05:12:22;;;;;;;11.50;7.90;;;;;;;;;;4999183;28;20030;-90
2021/03/17 05:14:48;;;;;;;10.73;7.38;;;;;;;;;;4999072;28;20109;-89
2021/03/17 05:17:16;;;;;;;10.57;6.97;;;;;;;;;;4999342;28;20018;-89
2021/03/17 05:19:42;;;;;;;14.80;8.10;;;;;;;;;;4982258;28;20102;-90
2021/03/17 05:22:09;;;;;;;12.50;8.52;;;;;;;;;;4999019;28;20046;-88
2021/03/17 05:24:36;;;;;;;13.93;8.38;;;;;;;;;;4999083;28;20049;-87
2021/03/17 05:27:03;;;;;;;12.93;7.63;;;;;;;;;;4981929;28;20105;-87
2021/03/17 05:29:29;;;;;;;13.85;8.43;;;;;;;;;;4998999;28;20029;-88
2021/03/17 05:31:56;;;;;;;12.73;7.80;;;;;;;;;;4999228;28;20161;-88
2021/03/17 05:34:22;;;;;;;16.33;8.27;;;;;;;;;;4998827;28;20030;-90
2021/03/17 05:36:49;;;;;;;10.48;7.45;;;;;;;;;;4998599;28;20022;-89
2021/03/17 05:39:15;;;;;;;13.43;8.10;;;;;;;;;;4998911;28;20022;-88
2021/03/17 05:41:42;;;;;;;25.92;11.70;;;;;;;;;;4998845;28;20026;-87
2021/03/17 05:44:08;;;;;;;66.43;27.02;;;;;;;;;;4998779;28;20026;-88
2021/03/17 05:46:35;;;;;;;36.67;17.48;;;;;;;;;;4998745;28;20022;-89
2021/03/17 05:49:01;;;;;;;29.05;16.48;;;;;;;;;;4998624;28;20409;-89
2021/03/17 05:51:28;;;;;;;31.83;21.40;;;;;;;;;;4965348;28;20050;-89
2021/03/17 05:53:54;;;;;;;15.90;10.85;;;;;;;;;;4981558;28;20057;-88
2021/03/17 05:56:20;;;;;;;12.80;8.77;;;;;;;;;;4998583;28;20018;-88
2021/03/17 05:58:46;;;;;;;17.02;9.88;;;;;;;;;;4998529;28;20398;-88
2021/03/17 06:01:14;;;;;;;13.80;9.55;;;;;;;;;;4998305;28;20365;-88
2021/03/17 06:03:40;;;;;;;14.23;9.13;;;;;;;;;;4998611;28;20421;-89
2021/03/17 06:06:07;;;;;;;18.67;9.48;;;;;;;;;;4998590;28;20030;-86
2021/03/17 06:08:38;;;;;;;15.35;8.90;;;;;;;;;;4998123;28;20436;-87
2021/03/17 06:11:07;;;;;;;14.50;8.50;;;;;;;;;;4997645;28;20044;-89
2021/03/17 06:13:34;;;;;;;14.85;9.43;;;;;;;;;;4998236;28;20037;-89
2021/03/17 06:16:03;;;;;;;14.65;9.52;;;;;;;;;;4980981;28;20046;-87
2021/03/17 06:18:31;;;;;;;12.93;9.05;;;;;;;;;;4998158;28;20114;-88
2021/03/17 06:20:58;;;;;;;13.80;8.20;;;;;;;;;;4981107;28;20061;-87
2021/03/17 06:23:24;;;;;;;13.20;8.80;;;;;;;;;;4998006;28;20137;-88
2021/03/17 06:25:51;;;;;;;13.90;9.98;;;;;;;;;;4998166;28;20074;-89
2021/03/17 06:28:17;;;;;;;16.92;11.32;;;;;;;;;;4981063;28;20031;-88
2021/03/17 06:30:44;;;;;;;19.55;11.45;;;;;;;;;;4998445;28;20026;-91
2021/03/17 06:33:11;;;;;;;30.45;15.18;;;;;;;;;;4998192;28;20034;-90
2021/03/17 06:35:37;;;;;;;42.08;19.60;;;;;;;;;;4981119;28;20313;-89
2021/03/17 06:38:03;;;;;;;84.05;30.38;;;;;;;;;;4980891;28;20173;-90
2021/03/17 06:40:33;;;;;;;33.60;15.35;;;;;;;;;;4998030;28;20419;-86
2021/03/17 06:43:05;;;;;;;68.85;27.70;;;;;;;;;;4980905;28;20425;-86
2021/03/17 06:45:39;;;;;;;75.55;29.23;;;;;;;;;;4980846;28;20049;-86
2021/03/17 06:48:25;;;;;;;91.53;33.58;;;;;;;;;;4997896;28;20032;-76
2021/03/17 06:51:03;;;;;;;57.53;23.88;;;;;;;;;;4997370;28;20050;-75
2021/03/17 06:53:40;;;;;;;83.25;30.63;;;;;;;;;;4997317;28;20054;-75
2021/03/17 06:56:26;;;;;;;65.38;22.95;;;;;;;;;;4997328;28;20023;-75
2021/03/17 06:59:00;;;;;;;53.30;21.92;;;;;;;;;;4980254;28;20309;-75
2021/03/17 07:01:26;;;;;;;50.35;19.67;;;;;;;;;;4997430;28;20302;-76
2021/03/17 07:03:53;;;;;;;43.47;19.33;;;;;;;;;;4997217;28;20030;-75
2021/03/17 07:06:19;;;;;;;50.20;20.95;;;;;;;;;;4980017;28;20125;-75
2021/03/17 07:08:45;;;;;;;53.63;22.45;;;;;;;;;;4997161;28;20026;-76
2021/03/17 07:11:11;;;;;;;43.55;18.83;;;;;;;;;;4997064;28;20026;-75
2021/03/17 07:13:37;;;;;;;33.20;18.02;;;;;;;;;;4979751;28;20041;-75
2021/03/17 07:16:03;;;;;;;43.97;22.40;;;;;;;;;;4996962;28;20105;-75
2021/03/17 07:18:31;;;;;;;39.55;20.27;;;;;;;;;;4979730;28;20026;-75
2021/03/17 07:20:58;;;;;;;36.25;19.60;;;;;;;;;;4998322;28;20065;-75
2021/03/17 07:23:30;;;;;;;39.25;19.38;;;;;;;;;;5000679;28;20138;-75
2021/03/17 07:26:02;;;;;;;40.42;18.73;;;;;;;;;;5000816;28;20117;-75
2021/03/17 07:28:28;;;;;;;29.13;15.13;;;;;;;;;;4983366;28;20038;-75
2021/03/17 07:30:54;;;;;;;26.63;15.93;;;;;;;;;;5000590;28;20050;-75
2021/03/17 07:33:24;;;;;;;27.77;15.20;;;;;;;;;;5000443;28;20317;-75
2021/03/17 07:35:50;;;;;;;35.42;18.30;;;;;;;;;;5000470;28;20290;-75
2021/03/17 07:38:16;;;;;;;24.90;14.85;;;;;;;;;;5000592;28;20029;-75
2021/03/17 07:40:46;;;;;;;26.90;15.27;;;;;;;;;;5000725;28;20073;-75
2021/03/17 07:43:13;;;;;;;26.05;14.80;;;;;;;;;;5000280;28;20046;-75
2021/03/17 07:45:39;;;;;;;30.27;15.50;;;;;;;;;;4999906;28;20496;-75
2021/03/17 07:48:06;;;;;;;20.77;12.48;;;;;;;;;;5000483;28;20030;-74
2021/03/17 07:50:33;;;;;;;22.10;14.40;;;;;;;;;;4982819;28;20031;-75
2021/03/17 07:53:03;;;;;;;35.67;14.63;;;;;;;;;;5000216;28;20026;-74
2021/03/17 07:55:30;;;;;;;20.17;14.27;;;;;;;;;;5000159;28;20088;-75
2021/03/17 07:57:57;;;;;;;28.27;17.58;;;;;;;;;;5000052;28;20133;-75
2021/03/17 08:00:24;;;;;;;48.47;20.90;;;;;;;;;;4999930;28;20030;-75
2021/03/17 08:02:51;;;;;;;32.80;17.67;;;;;;;;;;5000064;28;20353;-75
2021/03/17 08:05:17;;;;;;;28.35;16.77;;;;;;;;;;4999800;28;20027;-74
2021/03/17 08:07:44;;;;;;;29.10;17.73;;;;;;;;;;4985385;28;20038;-74
2021/03/17 08:10:10;;;;;;;29.63;15.75;;;;;;;;;;5002169;28;20046;-75
2021/03/17 08:12:37;;;;;;;28.48;16.35;;;;;;;;;;5019396;28;20042;-75
2021/03/17 08:15:03;;;;;;;18.63;12.27;;;;;;;;;;5019309;28;20560;-75
2021/03/17 08:17:34;;;;;;;20.17;13.23;;;;;;;;;;5019276;28;20022;-75
2021/03/17 08:20:12;;;;;;;19.25;13.13;;;;;;;;;;5019489;28;20038;-75
2021/03/17 08:22:38;;;;;;;17.33;12.10;;;;;;;;;;5019221;28;20069;-75
2021/03/17 08:25:05;;;;;;;19.90;13.07;;;;;;;;;;5019360;28;20022;-75
2021/03/17 08:27:31;;;;;;;18.73;12.30;;;;;;;;;;5019252;28;20356;-75
2021/03/17 08:30:10;;;;;;;18.35;12.35;;;;;;;;;;5019067;28;20053;-75
2021/03/17 08:32:56;;;;;;;37.03;20.40;;;;;;;;;;5018171;28;20030;-75
2021/03/17 08:35:22;;;;;;;26.90;15.30;;;;;;;;;;5019039;28;20026;-74
2021/03/17 08:37:50;;;;;;;21.90;14.50;;;;;;;;;;5001666;28;20076;-75
2021/03/17 08:40:46;;;;;;;23.42;15.00;;;;;;;;;;5018768;28;20034;-75
2021/03/17 08:43:30;;;;;;;23.00;14.40;;;;;;;;;;4939504;29;20055;-75
2021/03/17 08:46:25;;;;;;;34.10;16.80;;;;;;;;;;4939404;29;20038;-75
2021/03/17 08:48:59;;;;;;;25.20;15.02;;;;;;;;;;4882876;29;20062;-75
2021/03/17 08:51:43;;;;;;;17.05;12.57;;;;;;;;;;4867134;29;20047;-75
2021/03/17 08:54:27;;;;;;;25.05;14.40;;;;;;;;;;4882684;29;20041;-75
2021/03/17 08:56:53;;;;;;;22.45;14.63;;;;;;;;;;4867586;29;20186;-75
2021/03/17 08:59:20;;;;;;;23.15;14.75;;;;;;;;;;4882568;29;20044;-75
2021/03/17 09:01:46;;;;;;;22.95;14.30;;;;;;;;;;4882599;29;20025;-75
2021/03/17 09:04:32;;;;;;;21.92;14.63;;;;;;;;;;4882629;29;20409;-75
2021/03/17 09:07:07;;;;;;;18.25;13.25;;;;;;;;;;4882624;29;20089;-75
2021/03/17 09:09:45;;;;;;;21.10;14.63;;;;;;;;;;4882468;29;20033;-74
2021/03/17 09:12:11;;;;;;;24.98;15.02;;;;;;;;;;4882527;29;20048;-75
2021/03/17 09:14:38;;;;;;;21.63;13.25;;;;;;;;;;4882810;29;20021;-90
2021/03/17 09:17:08;;;;;;;18.88;13.20;;;;;;;;;;4867728;29;20032;-87
2021/03/17 09:19:53;;;;;;;21.15;14.02;;;;;;;;;;4911833;29;20063;-91
2021/03/17 09:22:31;;;;;;;19.35;13.23;;;;;;;;;;4938565;29;20143;-73
2021/03/17 09:24:57;;;;;;;25.73;16.33;;;;;;;;;;4970171;28;20036;-75
2021/03/17 09:27:23;;;;;;;17.10;13.05;;;;;;;;;;5018031;28;20022;-82
2021/03/17 09:29:50;;;;;;;23.70;15.27;;;;;;;;;;5018453;28;20037;-87
2021/03/17 09:32:17;;;;;;;118.55;58.80;;;;;;;;;;5018370;28;20026;-90
2021/03/17 09:34:44;;;;;;;21.38;15.15;;;;;;;;;;5018408;28;20022;-91
2021/03/17 09:37:11;;;;;;;22.10;15.80;;;;;;;;;;5018488;28;20026;-89
2021/03/17 09:39:39;;;;;;;20.15;14.52;;;;;;;;;;5017811;28;20026;-91
2021/03/17 09:42:06;;;;;;;18.42;13.50;;;;;;;;;;5000971;28;20044;-90
2021/03/17 09:44:32;;;;;;;18.10;13.73;;;;;;;;;;5018542;28;20033;-90
2021/03/17 09:46:58;;;;;;;20.40;13.90;;;;;;;;;;5018734;28;20085;-90
2021/03/17 09:49:26;;;;;;;19.45;14.68;;;;;;;;;;5018157;28;20026;-90
2021/03/17 09:51:56;;;;;;;21.77;15.35;;;;;;;;;;5018158;28;20044;-89
2021/03/17 09:54:23;;;;;;;23.20;14.80;;;;;;;;;;5000759;28;20088;-89
2021/03/17 09:57:08;;;;;;;20.40;15.07;;;;;;;;;;5000964;28;20021;-89
2021/03/17 09:59:41;;;;;;;21.02;14.27;;;;;;;;;;5017929;28;20022;-89
2021/03/17 10:02:14;;;;;;;23.15;15.18;;;;;;;;;;5000797;28;20037;-90
2021/03/17 10:04:44;;;;;;;20.52;15.13;;;;;;;;;;5018270;28;20022;-90
2021/03/17 10:07:29;;;;;;;20.92;14.02;;;;;;;;;;5001003;28;20029;-90
2021/03/17 10:09:57;;;;;;;19.95;15.32;;;;;;;;;;5000754;28;20076;-90
2021/03/17 10:12:24;;;;;;;26.30;16.08;;;;;;;;;;5017922;28;20360;-91
2021/03/17 10:14:52;;;;;;;21.75;14.18;;;;;;;;;;5017680;28;20028;-90
2021/03/17 10:17:19;;;;;;;17.92;13.02;;;;;;;;;;5017468;28;20026;-92
2021/03/17 10:19:49;;;;;;;17.60;11.82;;;;;;;;;;5018020;28;20057;-89
2021/03/17 10:22:16;;;;;;;20.75;12.25;;;;;;;;;;5017783;28;20399;-91
2021/03/17 10:24:49;;;;;;;19.85;13.65;;;;;;;;;;5017890;28;20060;-90
2021/03/17 10:27:20;;;;;;;25.42;14.77;;;;;;;;;;5017452;28;20018;-87
2021/03/17 10:29:47;;;;;;;23.23;15.70;;;;;;;;;;5017835;28;20397;-87
2021/03/17 10:32:15;;;;;;;22.23;16.77;;;;;;;;;;5017630;28;20105;-86
2021/03/17 10:34:41;;;;;;;21.63;14.52;;;;;;;;;;5017696;28;20028;-88
2021/03/17 10:37:11;;;;;;;16.35;11.73;;;;;;;;;;5000389;28;20026;-86
2021/03/17 10:39:37;;;;;;;16.35;9.27;;;;;;;;;;5017630;28;20018;-87
2021/03/17 10:42:04;;;;;;;13.52;9.65;;;;;;;;;;5000295;28;20030;-88
2021/03/17 10:44:32;;;;;;;15.73;10.57;;;;;;;;;;5000353;28;20054;-87
2021/03/17 10:47:05;;;;;;;13.57;9.88;;;;;;;;;;5017796;28;20026;-87
2021/03/17 10:49:32;;;;;;;16.98;10.07;;;;;;;;;;5017739;28;20053;-87
2021/03/17 10:51:59;;;;;;;15.43;10.43;;;;;;;;;;5017869;28;20045;-88
2021/03/17 10:54:28;;;;;;;12.35;8.63;;;;;;;;;;5017346;28;20025;-87
2021/03/17 10:56:54;;;;;;;13.50;9.63;;;;;;;;;;5002717;28;20026;-88
2021/03/17 10:59:27;;;;;;;13.77;8.82;;;;;;;;;;5021543;28;20324;-87
2021/03/17 11:01:52;;;;;;;;;;;;;;;;;;5021832;28;20113;-87
2021/03/17 11:04:19;;;;;;;12.20;8.10;;;;;;;;;;5004030;28;19957;-87
2021/03/17 11:06:57;;;;;;;12.80;8.27;;;;;;;;;;5003988;28;20124;-86
2021/03/17 11:09:23;;;;;;;13.75;9.13;;;;;;;;;;5021048;28;20064;-87
2021/03/17 11:11:53;;;;;;;16.02;11.15;;;;;;;;;;5021037;28;20092;-87
2021/03/17 11:14:34;;;;;;;120.40;18.80;;;;;;;;;;5002762;28;20065;-85
2021/03/17 11:17:07;;;;;;;17.10;11.60;;;;;;;;;;5003468;28;20030;-85
2021/03/17 11:19:33;;;;;;;19.92;14.25;;;;;;;;;;5021323;28;20311;-86
2021/03/17 11:21:59;;;;;;;19.00;12.38;;;;;;;;;;5020832;28;20436;-87
2021/03/17 11:24:26;;;;;;;19.52;13.15;;;;;;;;;;5003231;28;20069;-87
2021/03/17 11:26:52;;;;;;;29.48;17.05;;;;;;;;;;5003208;28;20124;-85
2021/03/17 11:29:18;;;;;;;24.38;15.07;;;;;;;;;;5002994;28;20057;-87
2021/03/17 11:31:44;;;;;;;21.90;14.57;;;;;;;;;;5020806;28;20029;-87
2021/03/17 11:34:11;;;;;;;20.08;13.65;;;;;;;;;;5020381;28;20108;-86
2021/03/17 11:36:37;;;;;;;20.73;13.10;;;;;;;;;;5003128;28;20109;-86
2021/03/17 11:39:06;;;;;;;28.13;13.98;;;;;;;;;;5002851;28;20030;-82
2021/03/17 11:41:33;;;;;;;18.17;12.85;;;;;;;;;;5020434;28;20049;-78
2021/03/17 11:43:59;;;;;;;23.83;14.30;;;;;;;;;;5020263;28;20360;-79
2021/03/17 11:46:25;;;;;;;18.73;11.90;;;;;;;;;;5020085;28;20030;-79
2021/03/17 11:48:52;;;;;;;17.17;12.27;;;;;;;;;;5019974;28;20029;-79
2021/03/17 11:51:18;;;;;;;20.20;13.15;;;;;;;;;;5019892;28;20045;-79
2021/03/17 11:53:45;;;;;;;18.02;11.82;;;;;;;;;;5019713;28;20026;-80
2021/03/17 11:56:11;;;;;;;25.15;15.25;;;;;;;;;;5019713;28;20026;-80
2021/03/17 11:58:37;;;;;;;32.47;16.88;;;;;;;;;;5019927;28;20148;-79
2021/03/17 12:01:04;;;;;;;23.10;14.88;;;;;;;;;;5019651;28;20018;-79
2021/03/17 12:03:31;;;;;;;26.88;16.48;;;;;;;;;;5019763;28;20101;-80
2021/03/17 12:05:57;;;;;;;26.85;16.00;;;;;;;;;;5019578;28;20029;-80
2021/03/17 12:08:25;;;;;;;21.23;11.20;;;;;;;;;;5018156;28;20050;-80
2021/03/17 12:10:52;;;;;;;31.35;15.57;;;;;;;;;;5019650;28;20030;-80
2021/03/17 12:13:21;;;;;;;19.45;12.63;;;;;;;;;;5019500;28;20041;-80
2021/03/17 12:15:47;;;;;;;28.52;16.73;;;;;;;;;;5001523;28;20034;-80
2021/03/17 12:18:14;;;;;;;16.02;10.30;;;;;;;;;;5019486;28;20030;-80
2021/03/17 12:20:40;;;;;;;13.15;8.75;;;;;;;;;;5019265;28;20088;-80
2021/03/17 12:23:06;;;;;;;13.00;8.68;;;;;;;;;;5019216;28;20054;-80
2021/03/17 12:25:32;;;;;;;28.30;15.35;;;;;;;;;;5019243;28;20385;-80
2021/03/17 12:27:59;;;;;;;14.63;9.18;;;;;;;;;;5019300;28;20325;-80
2021/03/17 12:30:25;;;;;;;35.22;18.30;;;;;;;;;;5019392;28;20104;-80
2021/03/17 12:32:52;;;;;;;19.73;11.63;;;;;;;;;;5019249;28;20026;-81
2021/03/17 12:35:19;;;;;;;41.05;21.30;;;;;;;;;;5019013;28;20045;-80
2021/03/17 12:37:46;;;;;;;21.75;12.48;;;;;;;;;;5001632;28;20068;-80
2021/03/17 12:40:14;;;;;;;27.33;15.65;;;;;;;;;;5019247;28;20017;-80
2021/03/17 12:42:40;;;;;;;26.38;16.05;;;;;;;;;;5018626;28;20487;-81
2021/03/17 12:45:07;;;;;;;45.03;18.20;;;;;;;;;;5019005;28;20042;-81
2021/03/17 12:47:34;;;;;;;51.58;19.25;;;;;;;;;;5018782;28;20308;-80
2021/03/17 12:50:00;;;;;;;37.45;12.32;;;;;;;;;;5018677;28;20025;-80
2021/03/17 12:52:26;;;;;;;21.13;10.38;;;;;;;;;;5001028;28;20046;-80
2021/03/17 12:54:52;;;;;;;21.00;9.68;;;;;;;;;;5018895;28;20022;-80
2021/03/17 12:57:18;;;;;;;22.52;12.63;;;;;;;;;;5018737;28;20068;-80
2021/03/17 12:59:44;;;;;;;23.20;12.07;;;;;;;;;;5018717;28;20022;-80
2021/03/17 13:02:11;;;;;;;63.30;28.73;;;;;;;;;;5018566;28;20029;-80
2021/03/17 13:04:37;;;;;;;38.85;21.80;;;;;;;;;;5001136;28;20025;-80
2021/03/17 13:07:04;;;;;;;31.27;18.70;;;;;;;;;;5018588;28;20109;-79
2021/03/17 13:09:30;;;;;;;52.47;28.58;;;;;;;;;;5018678;28;20037;-79
2021/03/17 13:11:56;;;;;;;287.50;128.73;;;;;;;;;;5018443;28;20312;-79
2021/03/17 13:14:24;;;;;;;61.22;37.33;;;;;;;;;;5018229;28;20046;-79
2021/03/17 13:16:51;;;;;;;32.60;25.05;;;;;;;;;;5018368;28;20045;-79
2021/03/17 13:19:17;;;;;;;20.63;14.05;;;;;;;;;;5017845;28;20029;-80
2021/03/17 13:21:43;;;;;;;16.17;10.98;;;;;;;;;;5018045;28;20042;-79
2021/03/17 13:24:09;;;;;;;14.98;11.32;;;;;;;;;;5000374;28;20034;-79
2021/03/17 13:26:37;;;;;;;16.83;10.73;;;;;;;;;;5018201;28;20046;-79
2021/03/17 13:29:03;;;;;;;12.18;8.30;;;;;;;;;;5017962;28;20113;-79
2021/03/17 13:31:29;;;;;;;18.08;12.98;;;;;;;;;;5000637;28;20116;-80
2021/03/17 13:33:55;;;;;;;18.48;13.65;;;;;;;;;;5017598;28;20061;-79
2021/03/17 13:36:21;;;;;;;13.27;9.30;;;;;;;;;;5018072;28;20025;-79
2021/03/17 13:38:47;;;;;;;15.55;12.07;;;;;;;;;;5017828;28;20022;-79
2021/03/17 13:41:13;;;;;;;15.55;13.30;;;;;;;;;;5018053;28;20109;-79
2021/03/17 13:43:40;;;;;;;13.88;10.90;;;;;;;;;;5000469;28;20033;-79
2021/03/17 13:46:06;;;;;;;15.00;11.50;;;;;;;;;;5017799;28;20048;-79
2021/03/17 13:48:32;;;;;;;21.98;14.32;;;;;;;;;;5017865;28;20026;-79
2021/03/17 13:50:58;;;;;;;36.05;24.55;;;;;;;;;;5017606;28;20049;-79
2021/03/17 13:53:24;;;;;;;26.08;18.63;;;;;;;;;;5017505;28;20415;-79
2021/03/17 13:55:50;;;;;;;47.28;31.63;;;;;;;;;;4999897;28;20133;-80
2021/03/17 13:58:17;;;;;;;29.75;19.60;;;;;;;;;;5017774;28;20101;-79
2021/03/17 14:00:44;;;;;;;29.23;19.48;;;;;;;;;;5017589;28;20029;-79
2021/03/17 14:03:10;;;;;;;28.63;16.50;;;;;;;;;;5017244;28;20025;-79
2021/03/17 14:05:36;;;;;;;23.83;14.07;;;;;;;;;;5017448;28;20363;-79
2021/03/17 14:08:03;;;;;;;62.38;31.75;;;;;;;;;;5017580;28;20025;-79
2021/03/17 14:10:34;;;;;;;69.53;37.88;;;;;;;;;;5017569;28;20100;-88
2021/03/17 14:13:00;;;;;;;34.22;22.70;;;;;;;;;;5017156;28;20025;-79
2021/03/17 14:15:29;;;;;;;27.10;17.33;;;;;;;;;;5016564;28;20022;-79
2021/03/17 14:17:55;;;;;;;29.85;20.05;;;;;;;;;;4997686;28;20037;-79
2021/03/17 14:20:23;;;;;;;26.58;17.65;;;;;;;;;;4997622;28;20033;-79
2021/03/17 14:22:49;;;;;;;25.70;18.13;;;;;;;;;;4997559;28;20042;-79
2021/03/17 14:25:15;;;;;;;23.55;16.38;;;;;;;;;;4997771;28;20056;-80
2021/03/17 14:27:42;;;;;;;23.83;16.58;;;;;;;;;;4997837;28;20101;-79
2021/03/17 14:30:09;;;;;;;21.98;14.77;;;;;;;;;;4979728;28;20026;-79
2021/03/17 14:32:36;;;;;;;40.00;23.88;;;;;;;;;;4980231;28;20030;-79